createdAt,value
2022-08-20T00:02:14.762Z,3.43
2022-08-20T00:04:44.185Z,3.13
2022-08-20T00:07:12.240Z,2.87
2022-08-20T00:09:41.760Z,3.17
2022-08-20T00:12:11.021Z,3.00
2022-08-20T00:14:40.458Z,3.10
2022-08-20T00:17:08.491Z,3.30
2022-08-20T00:19:36.409Z,2.63
2022-08-20T00:22:06.208Z,3.47
2022-08-20T00:24:34.912Z,3.53
2022-08-20T00:27:03.374Z,3.10
2022-08-20T00:29:31.398Z,3.20
2022-08-20T00:31:59.580Z,3.60
2022-08-20T00:34:27.835Z,2.83
2022-08-20T00:36:55.778Z,3.23
2022-08-20T00:39:24.970Z,3.43
2022-08-20T00:41:53.024Z,3.30
2022-08-20T00:44:23.152Z,3.53
2022-08-20T00:46:52.339Z,3.30
2022-08-20T00:49:24.671Z,3.00
2022-08-20T00:51:58.570Z,3.67
2022-08-20T00:54:31.238Z,3.27
2022-08-20T00:57:03.398Z,3.40
2022-08-20T00:59:33.874Z,3.27
2022-08-20T01:02:03.257Z,3.57
2022-08-20T01:04:34.136Z,3.37
2022-08-20T01:07:02.916Z,3.30
2022-08-20T01:09:33.408Z,2.70
2022-08-20T01:12:19.610Z,2.97
2022-08-20T01:14:48.415Z,3.20
2022-08-20T01:17:20.264Z,3.10
2022-08-20T01:19:52.562Z,2.80
2022-08-20T01:22:46.946Z,2.87
2022-08-20T01:25:22.629Z,2.97
2022-08-20T01:27:55.130Z,3.10
2022-08-20T01:30:28.912Z,3.30
2022-08-20T01:32:57.058Z,3.37
2022-08-20T01:35:27.133Z,3.37
2022-08-20T01:37:55.239Z,3.73
2022-08-20T01:40:36.926Z,3.67
2022-08-20T01:43:09.758Z,3.67
2022-08-20T01:45:40.182Z,3.27
2022-08-20T01:48:09.603Z,3.70
2022-08-20T01:50:41.914Z,3.20
2022-08-20T01:53:18.694Z,3.07
2022-08-20T01:55:46.612Z,3.47
2022-08-20T01:58:15.978Z,3.43
2022-08-20T02:00:43.900Z,3.37
2022-08-20T02:03:11.875Z,3.50
2022-08-20T02:05:39.878Z,3.60
2022-08-20T02:08:07.751Z,3.20
2022-08-20T02:10:36.394Z,3.30
2022-08-20T02:13:08.680Z,3.37
2022-08-20T02:15:39.966Z,3.50
2022-08-20T02:18:15.841Z,3.40
2022-08-20T02:20:45.227Z,3.07
2022-08-20T02:23:15.491Z,3.10
2022-08-20T02:25:48.304Z,3.43
2022-08-20T02:28:19.731Z,3.10
2022-08-20T02:30:51.981Z,3.10
2022-08-20T02:33:24.372Z,3.90
2022-08-20T02:35:56.798Z,3.40
2022-08-20T02:38:25.450Z,3.27
2022-08-20T02:40:53.658Z,3.50
2022-08-20T02:43:21.594Z,3.10
2022-08-20T02:45:51.535Z,3.50
2022-08-20T02:48:23.003Z,2.90
2022-08-20T02:50:54.095Z,3.23
2022-08-20T02:53:22.571Z,3.20
2022-08-20T02:55:51.495Z,3.00
2022-08-20T02:58:20.578Z,3.53
2022-08-20T03:00:50.448Z,3.27
2022-08-20T03:03:22.444Z,4.03
2022-08-20T03:05:53.127Z,3.90
2022-08-20T03:08:22.639Z,3.67
2022-08-20T03:10:52.315Z,3.70
2022-08-20T03:13:20.938Z,3.90
2022-08-20T03:15:57.929Z,3.97
2022-08-20T03:18:28.624Z,4.10
2022-08-20T03:20:56.545Z,4.00
2022-08-20T03:23:25.438Z,4.20
2022-08-20T03:25:53.419Z,4.00
2022-08-20T03:28:21.431Z,4.40
2022-08-20T03:30:51.428Z,3.93
2022-08-20T03:33:20.251Z,4.10
2022-08-20T03:35:49.393Z,4.37
2022-08-20T03:38:21.588Z,4.40
2022-08-20T03:41:01.096Z,3.70
2022-08-20T03:43:29.393Z,4.03
2022-08-20T03:45:58.722Z,3.90
2022-08-20T03:48:27.183Z,3.87
2022-08-20T03:50:57.626Z,3.70
2022-08-20T03:53:25.469Z,3.60
2022-08-20T03:56:00.457Z,3.77
2022-08-20T03:58:35.001Z,3.90
2022-08-20T04:01:07.669Z,3.90
2022-08-20T04:03:58.642Z,3.80
2022-08-20T04:06:27.721Z,3.70
2022-08-20T04:08:56.200Z,4.17
2022-08-20T04:11:24.674Z,4.20
2022-08-20T04:13:52.674Z,5.43
2022-08-20T04:16:22.381Z,4.63
2022-08-20T04:18:56.046Z,3.87
2022-08-20T04:21:33.178Z,3.87
2022-08-20T04:24:02.290Z,3.57
2022-08-20T04:26:30.544Z,4.30
2022-08-20T04:28:58.479Z,3.70
2022-08-20T04:31:33.858Z,4.27
2022-08-20T04:34:03.128Z,4.10
2022-08-20T04:36:31.407Z,4.47
2022-08-20T04:38:59.421Z,4.00
2022-08-20T04:41:26.385Z,3.87
2022-08-20T04:43:56.057Z,7.23
2022-08-20T04:46:28.689Z,6.10
2022-08-20T04:48:58.654Z,5.13
2022-08-20T04:51:27.030Z,6.53
2022-08-20T04:53:56.283Z,6.30
2022-08-20T04:56:26.405Z,6.03
2022-08-20T04:58:55.994Z,6.23
2022-08-20T05:01:26.018Z,6.70
2022-08-20T05:03:55.280Z,9.40
2022-08-20T05:06:26.517Z,8.40
2022-08-20T05:08:54.831Z,7.47
2022-08-20T05:11:35.375Z,8.53
2022-08-20T05:14:07.936Z,8.70
2022-08-20T05:16:40.338Z,8.77
2022-08-20T05:19:10.752Z,9.63
2022-08-20T05:21:40.595Z,8.77
2022-08-20T05:24:10.017Z,9.63
2022-08-20T05:26:37.988Z,9.53
2022-08-20T05:29:06.896Z,9.13
2022-08-20T05:31:36.061Z,8.60
2022-08-20T05:34:09.805Z,8.93
2022-08-20T05:36:41.684Z,8.67
2022-08-20T05:39:10.336Z,8.17
2022-08-20T05:41:38.973Z,8.87
2022-08-20T05:44:10.001Z,8.67
2022-08-20T05:46:40.372Z,8.80
2022-08-20T05:49:08.445Z,7.50
2022-08-20T05:51:37.425Z,7.73
2022-08-20T05:54:07.899Z,7.83
2022-08-20T05:56:37.117Z,7.27
2022-08-20T05:59:07.144Z,7.83
2022-08-20T06:01:37.978Z,10.10
2022-08-20T06:04:24.105Z,10.23
2022-08-20T06:06:53.051Z,10.43
2022-08-20T06:09:31.030Z,10.27
2022-08-20T06:12:02.362Z,10.00
2022-08-20T06:14:31.139Z,10.10
2022-08-20T06:17:04.875Z,10.20
2022-08-20T06:19:33.927Z,11.23
2022-08-20T06:22:02.004Z,10.40
2022-08-20T06:24:31.297Z,9.67
2022-08-20T06:27:00.479Z,11.17
2022-08-20T06:29:29.606Z,11.17
2022-08-20T06:31:58.084Z,11.20
2022-08-20T06:34:28.248Z,12.30
2022-08-20T06:36:59.376Z,10.50
2022-08-20T06:39:29.963Z,11.53
2022-08-20T06:41:59.550Z,11.00
2022-08-20T06:44:28.429Z,9.90
2022-08-20T06:47:00.873Z,10.40
2022-08-20T06:49:28.927Z,10.93
2022-08-20T06:52:03.834Z,11.43
2022-08-20T06:54:34.299Z,10.13
2022-08-20T06:57:04.502Z,9.73
2022-08-20T06:59:32.913Z,9.70
2022-08-20T07:02:00.973Z,9.40
2022-08-20T07:04:29.130Z,8.60
2022-08-20T07:06:57.714Z,8.93
2022-08-20T07:09:27.383Z,9.27
2022-08-20T07:11:56.155Z,8.70
2022-08-20T07:14:26.059Z,8.87
2022-08-20T07:16:53.997Z,8.93
2022-08-20T07:19:22.407Z,8.07
2022-08-20T07:21:50.682Z,8.13
2022-08-20T07:24:18.542Z,8.53
2022-08-20T07:26:46.586Z,9.10
2022-08-20T07:29:14.489Z,8.70
2022-08-20T07:32:01.510Z,8.37
2022-08-20T07:34:31.472Z,8.40
2022-08-20T07:37:00.808Z,8.60
2022-08-20T07:39:30.022Z,10.30
2022-08-20T07:42:03.940Z,9.00
2022-08-20T07:44:31.998Z,8.20
2022-08-20T07:47:01.319Z,7.80
2022-08-20T07:49:30.906Z,7.30
2022-08-20T07:51:58.839Z,7.13
2022-08-20T07:54:27.977Z,7.33
2022-08-20T07:57:02.530Z,6.87
2022-08-20T07:59:31.541Z,7.40
2022-08-20T08:02:00.834Z,7.37
2022-08-20T08:04:29.453Z,7.13
2022-08-20T08:07:00.094Z,6.83
2022-08-20T08:09:29.337Z,7.00
2022-08-20T08:12:00.800Z,6.50
2022-08-20T08:14:32.434Z,5.57
2022-08-20T08:17:05.459Z,5.87
2022-08-20T08:19:42.686Z,5.77
2022-08-20T08:22:13.265Z,6.13
2022-08-20T08:24:43.283Z,5.85
2022-08-20T08:27:25.468Z,4.90
2022-08-20T08:29:54.550Z,4.63
2022-08-20T08:32:24.645Z,4.50
2022-08-20T08:34:52.840Z,4.20
2022-08-20T08:37:21.131Z,3.78
2022-08-20T08:39:49.259Z,4.30
2022-08-20T08:42:27.144Z,3.80
2022-08-20T08:44:55.874Z,3.40
2022-08-20T08:47:29.367Z,3.80
2022-08-20T08:49:58.534Z,2.75
2022-08-20T08:52:31.528Z,2.30
2022-08-20T08:55:03.977Z,2.50
2022-08-20T08:57:32.308Z,2.45
2022-08-20T09:00:06.148Z,2.70
2022-08-20T09:02:38.788Z,2.40
2022-08-20T09:05:19.783Z,2.25
2022-08-20T09:07:51.333Z,2.65
2022-08-20T09:10:23.201Z,4.03
2022-08-20T09:12:52.232Z,2.70
2022-08-20T09:15:21.183Z,3.05
2022-08-20T09:17:50.782Z,3.83
2022-08-20T09:20:19.357Z,3.33
2022-08-20T09:22:47.376Z,2.90
2022-08-20T09:25:17.243Z,3.08
2022-08-20T09:27:45.332Z,3.05
2022-08-20T09:30:17.089Z,2.75
2022-08-20T09:32:46.611Z,3.13
2022-08-20T09:35:15.949Z,2.75
2022-08-20T09:37:43.883Z,3.65
2022-08-20T09:40:13.350Z,3.67
2022-08-20T09:42:41.960Z,3.33
2022-08-20T09:45:11.833Z,3.67
2022-08-20T09:47:54.757Z,2.80
2022-08-20T09:50:26.177Z,2.40
2022-08-20T09:52:56.447Z,2.22
2022-08-20T09:55:32.695Z,2.60
2022-08-20T09:58:03.263Z,2.15
2022-08-20T10:00:31.426Z,2.20
2022-08-20T10:03:00.794Z,2.30
2022-08-20T10:05:30.511Z,2.90
2022-08-20T10:07:58.684Z,1.85
2022-08-20T10:10:27.261Z,1.85
2022-08-20T10:12:55.277Z,1.55
2022-08-20T10:15:23.238Z,1.77
2022-08-20T10:17:51.125Z,2.20
2022-08-20T10:20:19.692Z,2.00
2022-08-20T10:22:48.917Z,1.85
2022-08-20T10:25:17.784Z,2.30
2022-08-20T10:27:45.695Z,1.90
2022-08-20T10:30:14.228Z,2.03
2022-08-20T10:32:42.783Z,1.75
2022-08-20T10:35:10.702Z,1.50
2022-08-20T10:37:38.635Z,2.10
2022-08-20T10:40:09.724Z,2.03
2022-08-20T10:42:42.340Z,2.05
2022-08-20T10:45:11.477Z,1.90
2022-08-20T10:47:39.718Z,1.50
2022-08-20T10:50:11.586Z,5.13
2022-08-20T10:52:39.449Z,1.60
2022-08-20T10:55:10.080Z,1.30
2022-08-20T10:57:41.795Z,1.33
2022-08-20T11:00:13.796Z,1.40
2022-08-20T11:02:42.006Z,1.10
2022-08-20T11:05:10.486Z,1.60
2022-08-20T11:07:50.797Z,1.42
2022-08-20T11:10:26.912Z,1.45
2022-08-20T11:12:55.271Z,1.35
2022-08-20T11:15:23.598Z,1.60
2022-08-20T11:17:51.420Z,1.20
2022-08-20T11:20:21.746Z,1.55
2022-08-20T11:22:49.596Z,1.33
2022-08-20T11:25:17.994Z,1.50
2022-08-20T11:27:50.021Z,1.33
2022-08-20T11:30:20.999Z,1.48
2022-08-20T11:32:49.347Z,1.38
2022-08-20T11:38:05.945Z,1.42
2022-08-20T11:40:34.538Z,1.40
2022-08-20T11:43:14.661Z,1.10
2022-08-20T11:45:43.477Z,1.00
2022-08-20T11:48:11.296Z,1.00
2022-08-20T11:50:39.183Z,1.13
2022-08-20T11:53:07.551Z,1.20
2022-08-20T11:55:36.698Z,1.33
2022-08-20T11:58:06.228Z,1.00
2022-08-20T12:00:34.520Z,0.88
2022-08-20T12:03:04.988Z,0.88
2022-08-20T12:05:33.432Z,1.50
2022-08-20T12:08:02.176Z,0.80
2022-08-20T12:10:30.625Z,0.90
2022-08-20T12:12:58.953Z,0.70
2022-08-20T12:15:28.504Z,0.70
2022-08-20T12:17:56.599Z,1.40
2022-08-20T12:20:25.045Z,1.00
2022-08-20T12:22:53.933Z,0.85
2022-08-20T12:25:21.922Z,0.90
2022-08-20T12:27:49.813Z,0.80
2022-08-20T12:30:20.718Z,0.80
2022-08-20T12:32:50.335Z,0.75
2022-08-20T12:35:19.857Z,1.20
2022-08-20T12:37:48.030Z,0.90
2022-08-20T12:40:18.075Z,1.98
2022-08-20T12:42:58.615Z,0.82
2022-08-20T12:45:26.631Z,2.92
2022-08-20T12:48:02.372Z,0.80
2022-08-20T12:50:31.858Z,0.70
2022-08-20T12:53:00.545Z,0.60
2022-08-20T12:55:28.417Z,0.70
2022-08-20T12:57:59.304Z,0.57
2022-08-20T13:00:30.169Z,0.45
2022-08-20T13:03:02.383Z,0.30
2022-08-20T13:05:30.991Z,0.40
2022-08-20T13:07:59.764Z,0.50
2022-08-20T13:10:30.943Z,0.40
2022-08-20T13:12:59.104Z,0.30
2022-08-20T13:15:27.392Z,0.70
2022-08-20T13:17:57.041Z,0.50
2022-08-20T13:20:31.625Z,0.50
2022-08-20T13:23:02.780Z,0.70
2022-08-20T13:25:30.773Z,0.70
2022-08-20T13:28:00.797Z,0.68
2022-08-20T13:30:29.150Z,0.90
2022-08-20T13:32:57.211Z,0.60
2022-08-20T13:35:26.559Z,0.63
2022-08-20T13:37:54.490Z,0.75
2022-08-20T13:40:22.479Z,0.70
2022-08-20T13:42:50.455Z,0.60
2022-08-20T13:45:18.399Z,0.80
2022-08-20T13:47:47.178Z,0.77
2022-08-20T13:50:18.186Z,0.57
2022-08-20T13:52:48.524Z,0.77
2022-08-20T13:55:20.230Z,0.60
2022-08-20T13:57:49.992Z,0.55
2022-08-20T14:00:21.367Z,1.10
2022-08-20T14:02:59.088Z,0.90
2022-08-20T14:05:27.068Z,0.60
2022-08-20T14:07:56.600Z,0.77
2022-08-20T14:10:31.309Z,0.80
2022-08-20T14:13:00.241Z,1.08
2022-08-20T14:15:28.355Z,0.90
2022-08-20T14:17:58.799Z,1.15
2022-08-20T14:20:31.991Z,1.17
2022-08-20T14:23:03.079Z,1.25
2022-08-20T14:25:32.734Z,1.30
2022-08-20T14:28:09.583Z,1.23
2022-08-20T14:30:37.624Z,1.42
2022-08-20T14:33:05.504Z,1.63
2022-08-20T14:35:33.450Z,1.55
2022-08-20T14:38:05.361Z,1.50
2022-08-20T14:40:34.542Z,1.73
2022-08-20T14:43:03.503Z,1.42
2022-08-20T14:45:31.912Z,1.40
2022-08-20T14:47:59.980Z,1.40
2022-08-20T14:50:30.700Z,1.73
2022-08-20T14:52:59.176Z,1.83
2022-08-20T14:55:30.883Z,1.98
2022-08-20T14:57:59.310Z,1.80
2022-08-20T15:00:29.976Z,1.50
2022-08-20T15:02:58.481Z,1.60
2022-08-20T15:05:26.852Z,1.52
2022-08-20T15:07:55.007Z,1.60
2022-08-20T15:10:24.961Z,1.88
2022-08-20T15:12:55.176Z,1.63
2022-08-20T15:15:23.487Z,1.60
2022-08-20T15:17:53.494Z,1.60
2022-08-20T15:20:25.729Z,1.20
2022-08-20T15:22:54.297Z,1.38
2022-08-20T15:25:24.438Z,1.70
2022-08-20T15:27:52.660Z,1.60
2022-08-20T15:30:24.069Z,1.63
2022-08-20T15:32:54.986Z,1.48
2022-08-20T15:35:24.427Z,1.70
2022-08-20T15:37:54.829Z,1.88
2022-08-20T15:40:28.143Z,1.42
2022-08-20T15:42:56.565Z,1.58
2022-08-20T15:45:26.207Z,2.00
2022-08-20T15:47:57.218Z,1.50
2022-08-20T15:50:51.554Z,1.60
2022-08-20T15:53:27.626Z,1.50
2022-08-20T15:56:03.359Z,1.42
2022-08-20T15:58:38.587Z,1.20
2022-08-20T16:01:25.333Z,1.50
2022-08-20T16:04:28.025Z,1.67
2022-08-20T16:07:01.799Z,1.73
2022-08-20T16:09:45.624Z,1.50
2022-08-20T16:12:18.984Z,1.50
2022-08-20T16:14:49.917Z,1.40
2022-08-20T16:17:26.096Z,1.60
2022-08-20T16:20:01.906Z,1.55
2022-08-20T16:22:32.288Z,1.65
2022-08-20T16:25:00.348Z,1.77
2022-08-20T16:27:36.948Z,1.80
2022-08-20T16:30:09.480Z,1.70
2022-08-20T16:32:41.985Z,1.88
2022-08-20T16:35:29.870Z,1.88
2022-08-20T16:38:04.773Z,2.33
2022-08-20T16:40:39.925Z,1.80
2022-08-20T16:43:11.544Z,2.35
2022-08-20T16:45:51.010Z,1.92
2022-08-20T16:48:21.312Z,2.03
2022-08-20T16:50:58.106Z,2.20
2022-08-20T16:53:27.280Z,2.20
2022-08-20T16:55:57.303Z,1.70
2022-08-20T16:58:27.241Z,2.00
2022-08-20T17:01:11.323Z,2.08
2022-08-20T17:03:50.802Z,1.80
2022-08-20T17:06:28.625Z,2.20
2022-08-20T17:08:56.943Z,2.22
2022-08-20T17:11:31.015Z,2.00
2022-08-20T17:14:11.719Z,2.05
2022-08-20T17:16:46.374Z,2.17
2022-08-20T17:19:28.603Z,1.90
2022-08-20T17:21:57.463Z,2.00
2022-08-20T17:24:27.762Z,2.00
2022-08-20T17:27:01.422Z,1.80
2022-08-20T17:29:31.399Z,2.03
2022-08-20T17:32:01.443Z,2.10
2022-08-20T17:34:32.605Z,2.10
2022-08-20T17:37:06.250Z,2.30
2022-08-20T17:39:34.520Z,1.87
2022-08-20T17:42:08.075Z,2.23
2022-08-20T17:44:40.348Z,1.80
2022-08-20T17:47:13.798Z,2.03
2022-08-20T17:50:02.319Z,1.90
2022-08-20T17:52:38.774Z,2.20
2022-08-20T17:55:09.333Z,2.03
2022-08-20T17:57:41.235Z,1.80
2022-08-20T18:00:14.277Z,2.27
2022-08-20T18:02:42.462Z,2.27
2022-08-20T18:05:17.061Z,2.20
2022-08-20T18:08:06.963Z,2.60
2022-08-20T18:10:43.494Z,2.60
2022-08-20T18:13:19.170Z,2.57
2022-08-20T18:15:51.532Z,3.70
2022-08-20T18:18:32.347Z,2.90
2022-08-20T18:21:21.701Z,2.70
2022-08-20T18:23:57.185Z,2.80
2022-08-20T18:26:29.421Z,3.23
2022-08-20T18:29:03.723Z,2.93
2022-08-20T18:31:35.650Z,3.10
2022-08-20T18:34:11.968Z,3.27
2022-08-20T18:36:42.660Z,3.00
2022-08-20T18:39:24.742Z,2.90
2022-08-20T18:41:58.742Z,3.10
2022-08-20T18:44:37.213Z,3.37
2022-08-20T18:47:08.027Z,2.97
2022-08-20T18:49:38.254Z,3.47
2022-08-20T18:52:13.207Z,4.00
2022-08-20T18:54:43.697Z,3.40
2022-08-20T18:57:21.081Z,3.73
2022-08-20T18:59:53.533Z,5.47
2022-08-20T19:02:29.206Z,3.60
2022-08-20T19:05:02.525Z,6.37
2022-08-20T19:07:48.089Z,4.00
2022-08-20T19:10:39.576Z,3.80
2022-08-20T19:13:20.419Z,4.07
2022-08-20T19:15:51.792Z,4.00
2022-08-20T19:18:25.869Z,4.00
2022-08-20T19:20:57.364Z,4.33
2022-08-20T19:23:29.877Z,4.13
2022-08-20T19:26:00.886Z,4.13
2022-08-20T19:28:32.778Z,4.20
2022-08-20T19:31:11.121Z,4.40
2022-08-20T19:33:44.153Z,4.00
2022-08-20T19:36:15.500Z,5.43
2022-08-20T19:38:50.752Z,4.70
2022-08-20T19:41:28.153Z,4.73
2022-08-20T19:44:00.406Z,4.77
2022-08-20T19:46:32.071Z,5.10
2022-08-20T19:49:18.095Z,5.13
2022-08-20T19:51:56.591Z,5.43
2022-08-20T19:54:28.162Z,5.60
2022-08-20T19:56:58.333Z,5.50
2022-08-20T19:59:26.760Z,4.87
2022-08-20T20:02:00.000Z,5.10
2022-08-20T20:04:30.294Z,4.80
2022-08-20T20:06:59.091Z,5.07
2022-08-20T20:09:30.513Z,5.10
2022-08-20T20:12:02.593Z,5.00
2022-08-20T20:14:33.470Z,5.07
2022-08-20T20:17:05.128Z,4.70
2022-08-20T20:19:33.164Z,4.60
2022-08-20T20:22:19.023Z,5.13
2022-08-20T20:25:03.649Z,4.57
2022-08-20T20:27:33.150Z,4.70
2022-08-20T20:30:03.216Z,4.47
2022-08-20T20:32:33.892Z,4.80
2022-08-20T20:35:06.495Z,4.63
2022-08-20T20:37:48.807Z,4.90
2022-08-20T20:40:25.843Z,4.67
2022-08-20T20:43:04.309Z,4.93
2022-08-20T20:45:36.160Z,4.70
2022-08-20T20:48:16.028Z,4.57
2022-08-20T20:50:44.063Z,4.70
2022-08-20T20:53:13.128Z,4.67
2022-08-20T20:55:53.747Z,4.53
2022-08-20T20:58:21.703Z,4.47
2022-08-20T21:00:51.553Z,4.37
2022-08-20T21:03:19.489Z,4.30
2022-08-20T21:05:47.954Z,4.00
2022-08-20T21:08:16.008Z,4.57
2022-08-20T21:10:45.267Z,4.00
2022-08-20T21:13:13.344Z,3.53
2022-08-20T21:15:41.322Z,3.80
2022-08-20T21:18:10.144Z,4.10
2022-08-20T21:20:38.213Z,3.60
2022-08-20T21:23:06.943Z,4.17
2022-08-20T21:25:36.210Z,4.27
2022-08-20T21:28:06.133Z,4.37
2022-08-20T21:30:34.237Z,3.97
2022-08-20T21:33:02.188Z,4.13
2022-08-20T21:35:30.085Z,4.30
2022-08-20T21:37:57.951Z,4.57
2022-08-20T21:40:28.419Z,4.37
2022-08-20T21:42:57.078Z,4.07
2022-08-20T21:45:28.319Z,4.10
2022-08-20T21:47:57.094Z,4.23
2022-08-20T21:50:25.755Z,4.17
2022-08-20T21:52:59.910Z,4.23
2022-08-20T21:55:30.101Z,4.47
2022-08-20T21:57:59.171Z,4.47
2022-08-20T22:00:55.500Z,3.83
2022-08-20T22:03:25.328Z,4.37
2022-08-20T22:05:56.694Z,3.90
2022-08-20T22:08:28.541Z,3.87
2022-08-20T22:10:57.876Z,4.60
2022-08-20T22:13:28.235Z,4.20
2022-08-20T22:15:57.480Z,3.87
2022-08-20T22:18:25.924Z,3.93
2022-08-20T22:20:54.047Z,4.17
2022-08-20T22:23:22.313Z,4.10
2022-08-20T22:25:50.568Z,3.87
2022-08-20T22:28:18.968Z,3.90
2022-08-20T22:30:47.081Z,3.83
2022-08-20T22:33:22.107Z,4.10
2022-08-20T22:35:52.290Z,4.07
2022-08-20T22:38:20.472Z,4.10
2022-08-20T22:40:48.732Z,4.03
2022-08-20T22:43:17.140Z,3.90
2022-08-20T22:45:48.284Z,4.10
2022-08-20T22:48:19.531Z,4.40
2022-08-20T22:50:48.271Z,3.73
2022-08-20T22:53:18.375Z,4.80
2022-08-20T22:55:46.614Z,4.33
2022-08-20T22:58:15.703Z,4.20
2022-08-20T23:00:45.304Z,4.70
2022-08-20T23:03:14.920Z,4.40
2022-08-20T23:05:48.570Z,5.00
2022-08-20T23:08:16.965Z,4.97
2022-08-20T23:10:45.579Z,4.60
2022-08-20T23:13:13.720Z,4.70
2022-08-20T23:15:45.634Z,4.90
2022-08-20T23:18:15.850Z,4.57
2022-08-20T23:20:47.219Z,4.40
2022-08-20T23:23:16.818Z,4.63
2022-08-20T23:25:44.725Z,5.00
2022-08-20T23:28:12.908Z,4.90
2022-08-20T23:30:41.006Z,4.67
2022-08-20T23:33:09.174Z,5.20
2022-08-20T23:35:40.502Z,5.13
2022-08-20T23:38:09.085Z,5.10
2022-08-20T23:40:38.469Z,5.50
2022-08-20T23:43:07.562Z,5.03
2022-08-20T23:45:36.099Z,5.93
2022-08-20T23:48:09.136Z,5.87
2022-08-20T23:50:39.266Z,5.40
2022-08-20T23:53:07.234Z,5.97
2022-08-20T23:55:35.508Z,5.70
2022-08-20T23:58:04.730Z,5.77
